Tiempo atmosférico en la estación meteorológica de Mora, Toledo (717 m.)



Fecha
DESCASC
Temp. máxima en grados centígrados (hora)
DESCASC
Temp. mínima en grados centígrados (hora)
DESCASC
Temp. media en grados centígrados
DESCASC
Racha de viento máxima en m/sg (hora)
DESCASC
Velocidad máxima media en intervalos de 10 minutos(hora)
DESCASC
Precipitaciones diarias en mm
DESCASC
Precipitaciones de 00:00 a 06:00 en mm
DESCASC
Precipitaciones de 06:00 a 12:00 en mm
DESCASC
Precipitaciones de 12:00 a 18:00 en mm
DESCASC
Precipitaciones de 18:00 a 24:00 en mm
DESCASC
15-07-2018 29.1 (15:50) 17 (07:20) 23.1 9.44 (17:50) 6.11 (20:20) 0 0 0 0 0
14-07-2018 32.3 (17:50) 18.5 (07:10) 25.4 10.83 (16:50) 6.11 (18:10) 0 0 0 0 0
13-07-2018 33.4 (18:10) 19.3 (07:10) 26.4 8.06 (17:20) 4.17 (18:10) 0 0 0 0 0
12-07-2018 33.5 (18:40) 18.5 (00:00) 26 6.11 (17:10) 3.33 (17:10) 0 0 0 0 0
11-07-2018 32.2 (17:20) 20.1 (00:00) 26.2 11.11 (15:10) 6.39 (19:30) 0 0 0 0 0
10-07-2018 34.8 (18:30) 18.9 (00:00) 26.8 13.89 (17:10) 4.44 (18:30) 0 0 0 0 0
09-07-2018 35 (18:00) 19.6 (00:00) 27.3 8.61 (16:00) 4.44 (17:50) 0 0 0 0 0
08-07-2018 35 (18:30) 18.6 (07:20) 26.8 6.94 (20:50) 4.17 (20:50) 0 0 0 0 0
07-07-2018 34.3 (18:40) 19.7 (00:00) 27 7.22 (16:10) 3.61 (19:20) 0 0 0 0 0
06-07-2018 32.2 (17:10) 17.2 (00:00) 24.7 7.5 (16:10) 3.89 (19:00) 0 0 0 0 0
05-07-2018 29 (17:50) 15.1 (07:00) 22.1 7.78 (15:50) 4.17 (16:00) 0 0 0 0 0
04-07-2018 27.1 (17:10) 17.3 (06:30) 22.2 12.22 (14:00) 6.39 (17:20) 0 0 0 0 0
03-07-2018 31.7 (17:40) 15.6 (07:00) 23.7 8.89 (16:50) 4.17 (18:30) 0 0 0 0 0
02-07-2018 27.6 (17:20) 13.6 (07:10) 20.6 7.5 (13:40) 4.72 (17:30) 0 0 0 0 0
01-07-2018 27.6 (17:20) 18 (00:00) 22.8 10.28 (19:50) 5 (14:00) 0 0 0 0 0
30-06-2018 29.1 (16:30) 19.4 (07:40) 24.3 10 (19:30) 5.83 (19:30) 0 0 0 0 0
29-06-2018 32.9 (19:10) 18.1 (00:00) 25.5 8.89 (16:30) 4.17 (18:40) 0 0 0 0 0
28-06-2018 31.2 (18:20) 18.5 (00:00) 24.9 8.06 (19:40) 4.17 (20:00) 0 0 0 0 0
27-06-2018 32.4 (17:10) 20.9 (00:00) 26.7 12.5 (17:20) 5 (20:40) 0 0 0 0 0
26-06-2018 35.2 (18:10) 21.6 (00:00) 28.4 9.72 (19:20) 4.44 (19:20) 0 0 0 0 0
25-06-2018 36 (18:00) 20.4 (00:00) 28.2 11.94 (21:10) 6.11 (21:10) 0 0 0 0 0
24-06-2018 37.6 (18:00) 19.3 (00:00) 28.4 7.5 (16:50) 3.33 (03:20) 0 0 0 0 0
23-06-2018 35.9 (17:20) 20.6 (00:00) 28.3 7.5 (05:30) 4.17 (06:00) 0 0 0 0 0
22-06-2018 34.8 (19:00) 19.7 (07:40) 27.3 8.33 (13:30) 4.17 (05:50) 0 0 0 0 0
21-06-2018 33.2 (18:30) 19.3 (00:00) 26.3 10.28 (17:40) 4.44 (17:40) 0 0 0 0 0
20-06-2018 33.7 (18:10) 18.9 (00:00) 26.3 9.17 (00:10) 4.17 (01:00) 0 0 0 0 0
19-06-2018 33.2 (16:30) 16.5 (00:00) 24.9 8.33 (23:10) 4.72 (23:50) 0 0 0 0 0
18-06-2018 32 (17:50) 14.6 (00:00) 23.3 10.28 (15:40) 5 (19:50) 0 0 0 0 0
17-06-2018 31.9 (19:00) 14.5 (00:00) 23.2 8.06 (13:50) 4.17 (17:50) 0 0 0 0 0

Gráficas

Temp. máximas Temp. mínimas Temp. medias Precipitaciones Rachas de viento máximas Velocidades máximas media en intervalos de 10 minutos

Datos horarios

Fecha y hora oficial Temperatura (ºC) Velocidad del viento (km/h) Dirección del viento Racha (km/h) Dirección de racha Precipitación (mm) Presión (hPa) Tendencia (hPa) Humedad (%)
2018-07-16 23:00:00 23.9 2 Oeste 5 Norte 0 -- -- 31
2018-07-16 22:00:00 25.4 4 Norte 12 Noroeste 0 -- -- 29
2018-07-16 21:00:00 28.2 8 Noroeste 15 Noroeste 0 -- -- 25
2018-07-16 20:00:00 29 11 Oeste 19 Noroeste 0 -- -- 24
2018-07-16 19:00:00 29.1 9 Oeste 23 Oeste 0 -- -- 25
2018-07-16 18:00:00 28.9 13 Oeste 25 Noroeste 0 -- -- 27
2018-07-16 17:00:00 28.6 13 Noroeste 27 Noroeste 0 -- -- 27
2018-07-16 16:00:00 28.1 9 Noroeste 30 Noroeste 0 -- -- 28
2018-07-16 15:00:00 27.5 15 Noroeste 28 Oeste 0 -- -- 30
2018-07-16 14:00:00 26.1 12 Oeste 26 Noroeste 0 -- -- 34
2018-07-16 13:00:00 25.5 13 Noroeste 31 Oeste 0 -- -- 33
2018-07-16 12:00:00 24.4 13 Oeste 26 Oeste 0 -- -- 38
2018-07-16 11:00:00 22.9 10 Oeste 20 Oeste 0 -- -- 44
2018-07-16 10:00:00 21.1 13 Oeste 23 Noroeste 0 -- -- 51
2018-07-16 09:00:00 19 12 Oeste 22 Oeste 0 -- -- 58
2018-07-16 08:00:00 17.6 6 Sudoeste 16 Oeste 0 -- -- 60
2018-07-16 07:00:00 16.5 11 Oeste 18 Oeste 0 -- -- 64
2018-07-16 06:00:00 16.8 12 Oeste 22 Oeste 0 -- -- 62
2018-07-16 05:00:00 17.4 14 Oeste 23 Oeste 0 -- -- 58
2018-07-16 04:00:00 17.8 9 Oeste 28 Oeste 0 -- -- 56
2018-07-16 03:00:00 18.4 15 Oeste 28 Oeste 0 -- -- 53
2018-07-16 02:00:00 19.1 12 Oeste 23 Oeste 0 -- -- 45
2018-07-16 01:00:00 20 8 Sudoeste 19 Sudoeste 0 -- -- 41
2018-07-16 00:00:00 21.2 11 Oeste 23 Sudoeste 0 -- -- 40
2018-07-15 23:00:00 22 12 Sudoeste 28 Sudoeste 0 -- -- 41
2018-07-15 22:00:00 23.4 14 Oeste 27 Oeste 0 -- -- 37
2018-07-15 21:00:00 25.2 14 Oeste 34 Oeste 0 -- -- 31
2018-07-15 20:00:00 26.8 19 Sudoeste 34 Oeste 0 -- -- 29
2018-07-15 19:00:00 28.6 13 Sudoeste 31 Sudoeste 0 -- -- 28
2018-07-15 18:00:00 28.6 16 Sudoeste 34 Sudoeste 0 -- -- 27
2018-07-15 17:00:00 27.2 17 Oeste 30 Oeste 0 -- -- 34
2018-07-15 16:00:00 28.2 5 Sur 26 Sudoeste 0 -- -- 31
2018-07-15 15:00:00 28.2 12 Noroeste 26 Oeste 0 -- -- 30
2018-07-15 14:00:00 27.6 6 Nordeste 22 Oeste 0 -- -- 33
2018-07-15 13:00:00 26.2 8 Noroeste 18 Noroeste 0 -- -- 36
2018-07-15 12:00:00 25.1 7 Sudoeste 16 Oeste 0 -- -- 37
2018-07-15 11:00:00 23.7 6 Sudoeste 14 Noroeste 0 -- -- 42
2018-07-15 10:00:00 23.2 5 Oeste 10 Sudoeste 0 -- -- 45
2018-07-15 09:00:00 20.4 4 Sudoeste 9 Sur 0 -- -- 50
2018-07-15 08:00:00 19.3 4 Sudeste 8 Sudeste 0 -- -- 48
2018-07-15 07:00:00 17.5 3 Sur 12 Sur 0 -- -- 50
2018-07-15 06:00:00 18.3 4 Sur 9 Sudoeste 0 -- -- 46
2018-07-15 05:00:00 19.8 3 Sudoeste 17 Sudoeste 0 -- -- 41
2018-07-15 04:00:00 20.7 5 Sudoeste 11 Sur 0 -- -- 37
2018-07-15 03:00:00 21.5 4 Sur 14 Sudoeste 0 -- -- 34
2018-07-15 02:00:00 22.5 8 Sudoeste 25 Sudoeste 0 -- -- 30
2018-07-15 01:00:00 23.5 8 Sudoeste 18 Sudoeste 0 -- -- 27
2018-07-15 00:00:00 23.5 6 Sudoeste 12 Sudoeste 0 -- -- 27
2018-07-14 23:00:00 25.4 6 Sudoeste 17 Sudoeste 0 -- -- 23
2018-07-14 22:00:00 27.4 7 Sudoeste 22 Sudoeste 0 -- -- 22
2018-07-14 21:00:00 29.9 14 Sudoeste 29 Sudoeste 0 -- -- 21
2018-07-14 20:00:00 31.4 13 Sudoeste 33 Sudoeste 0 -- -- 20
2018-07-14 19:00:00 31.6 17 Sudoeste 36 Sudoeste 0 -- -- 20
2018-07-14 18:00:00 32 15 Sudoeste 36 Oeste 0 -- -- 20
2018-07-14 17:00:00 32 18 Sudoeste 39 Sur 0 -- -- 20
2018-07-14 16:00:00 31.9 11 Sudoeste 32 Sudoeste 0 -- -- 20
2018-07-14 15:00:00 31.7 8 Sur 26 Sur 0 -- -- 23
2018-07-14 14:00:00 30.5 15 Sur 35 Sudeste 0 -- -- 22
2018-07-14 13:00:00 29 8 Sur 22 Sudoeste 0 -- -- 24
2018-07-14 12:00:00 27.6 13 Sudoeste 24 Sur 0 -- -- 28
2018-07-14 11:00:00 27.1 8 Sur 16 Sur 0 -- -- 34
2018-07-14 10:00:00 25.7 6 Sur 14 Sur 0 -- -- 40
2018-07-14 09:00:00 22.3 9 Sur 14 Sur 0 -- -- 53
2018-07-14 08:00:00 20.8 4 Sur 10 Sur 0 -- -- 52
2018-07-14 07:00:00 18.7 4 Sudeste 11 Sudeste 0 -- -- 49
2018-07-14 06:00:00 19.1 5 Sudeste 12 Sur 0 -- -- 44
2018-07-14 05:00:00 20.2 5 Sudeste 10 Sur 0 -- -- 37
2018-07-14 04:00:00 21.1 6 Sur 10 Sur 0 -- -- 34
2018-07-14 03:00:00 22.3 2 Sudeste 9 Sudoeste 0 -- -- 31
2018-07-14 02:00:00 22.7 3 Sudeste 13 Sur 0 -- -- 31
2018-07-14 01:00:00 25 6 Sudoeste 22 Sudoeste 0 -- -- 28
2018-07-14 00:00:00 25.4 8 Sur 16 Sudoeste 0 -- -- 27
2018-07-13 23:00:00 27 9 Sudoeste 19 Sudoeste 0 -- -- 25
2018-07-13 22:00:00 29.3 10 Sudoeste 18 Sudoeste 0 -- -- 25
2018-07-13 21:00:00 31.5 8 Sur 20 Sur 0 -- -- 27
2018-07-13 20:00:00 33 8 Sur 22 Sur 0 -- -- 26
2018-07-13 19:00:00 32.1 10 Sur 26 Sudeste 0 -- -- 27
2018-07-13 18:00:00 32.9 13 Sur 29 Sur 0 -- -- 25
2018-07-13 17:00:00 33.3 11 Sur 27 Sudoeste 0 -- -- 24
2018-07-13 16:00:00 32.9 12 Sudeste 26 Sur 0 -- -- 26
2018-07-13 15:00:00 31.5 6 Oeste 27 Sur 0 -- -- 30
2018-07-13 14:00:00 31.1 6 Este 23 Sur 0 -- -- 30
2018-07-13 13:00:00 29.9 9 Este 21 Este 0 -- -- 34
2018-07-13 12:00:00 28.3 6 Sudeste 14 Sudeste 0 -- -- 36
2018-07-13 11:00:00 26.7 5 Este 15 Sudoeste 0 -- -- 41
2018-07-13 10:00:00 24.3 7 Sudoeste 13 Sur 0 -- -- 46
2018-07-13 09:00:00 22.5 5 Sur 11 Sudeste 0 -- -- 51
2018-07-13 08:00:00 20.7 4 Sur 12 Sur 0 -- -- 55
2018-07-13 07:00:00 19.5 7 Sudeste 13 Sudeste 0 -- -- 69
2018-07-13 06:00:00 20.6 3 Sur 17 Este 0 -- -- 69
2018-07-13 05:00:00 21.4 6 Sudeste 20 Sudeste 0 -- -- 69
2018-07-13 04:00:00 22.6 10 Sudeste 17 Este 0 -- -- 66
2018-07-13 03:00:00 23.1 4 Sudeste 19 Este 0 -- -- 42
2018-07-13 02:00:00 23.2 6 Sudeste 14 Sudeste 0 -- -- 42
2018-07-13 01:00:00 24.4 4 Sur 9 Sur 0 -- -- 37
2018-07-13 00:00:00 25.5 0 Calma 6 Sudoeste 0 -- -- 37
2018-07-12 23:00:00 27.3 2 Sudeste 10 Oeste 0 -- -- 34
2018-07-12 22:00:00 29.1 4 Oeste 8 Noroeste 0 -- -- 28
2018-07-12 21:00:00 30.9 7 Noroeste 18 Oeste 0 -- -- 27
2018-07-12 20:00:00 32.3 9 Oeste 18 Oeste 0 -- -- 26
2018-07-12 19:00:00 31.7 9 Noroeste 19 Noroeste 0 -- -- 28
2018-07-12 18:00:00 31.6 5 Oeste 22 Sudoeste 0 -- -- 27
2018-07-12 17:00:00 32 10 Sudoeste 18 Sudoeste 0 -- -- 28
2018-07-12 16:00:00 30.4 4 Oeste 15 Oeste 0 -- -- 31
2018-07-12 15:00:00 30.2 5 Sur 15 Noroeste 0 -- -- 31
2018-07-12 14:00:00 30.5 5 Norte 21 Norte 0 -- -- 31
2018-07-12 13:00:00 29.3 8 Nordeste 16 Norte 0 -- -- 34
2018-07-12 12:00:00 27.7 7 Norte 15 Noroeste 0 -- -- 38
2018-07-12 11:00:00 26.1 6 Noroeste 15 Noroeste 0 -- -- 45
2018-07-12 10:00:00 23.8 9 Noroeste 15 Oeste 0 -- -- 50
2018-07-12 09:00:00 22.4 6 Oeste 10 Sudoeste 0 -- -- 54
2018-07-12 08:00:00 21.3 0 Calma 8 Sudoeste 0 -- -- 58
2018-07-12 07:00:00 18.7 4 Sur 9 Oeste 0 -- -- 70
2018-07-12 06:00:00 19.4 4 Oeste 10 Sudoeste 0 -- -- 70
2018-07-12 05:00:00 20.2 4 Sudoeste 10 Sudoeste 0 -- -- 65
2018-07-12 04:00:00 20.6 5 Sudoeste 13 Sudoeste 0 -- -- 62
2018-07-12 03:00:00 21.7 6 Sudoeste 14 Oeste 0 -- -- 60
2018-07-12 02:00:00 21.7 6 Sudoeste 13 Sudoeste 0 -- -- 57
2018-07-12 01:00:00 23 7 Oeste 14 Oeste 0 -- -- 49
2018-07-12 00:00:00 24 7 Oeste 18 Oeste 0 -- -- 38
2018-07-11 23:00:00 24.8 8 Oeste 15 Sudoeste 0 -- -- 30
2018-07-11 22:00:00 26.5 10 Sudoeste 23 Oeste 0 -- -- 29
2018-07-11 21:00:00 29 15 Sudoeste 29 Oeste 0 -- -- 24
2018-07-11 20:00:00 30.9 17 Oeste 34 Oeste 0 -- -- 18
2018-07-11 19:00:00 31.2 17 Oeste 34 Sudoeste 0 -- -- 26
2018-07-11 18:00:00 31.7 13 Sudoeste 37 Sudoeste 0 -- -- 28
2018-07-11 17:00:00 31.8 15 Sudoeste 35 Sudoeste 0 -- -- 32
2018-07-11 16:00:00 31.5 14 Sudoeste 40 Sudoeste 0 -- -- 29
2018-07-11 15:00:00 30.5 15 Oeste 39 Sudoeste 0 -- -- 29
2018-07-11 14:00:00 31 17 Sudoeste 32 Sudoeste 0 -- -- 25
2018-07-11 13:00:00 30.1 14 Sudoeste 31 Sur 0 -- -- 31
2018-07-11 12:00:00 29.3 14 Sudoeste 26 Sudoeste 0 -- -- 32
2018-07-11 11:00:00 28.2 9 Sudoeste 19 Sudoeste 0 -- -- 30
2018-07-11 10:00:00 26.2 9 Sudoeste 13 Sudoeste 0 -- -- 46
2018-07-11 09:00:00 23 4 Sur 19 Sudoeste 0 -- -- 50
2018-07-11 08:00:00 22.8 5 Este 15 Este 0 -- -- 50
2018-07-11 07:00:00 20.4 4 Sur 8 Sur 0 -- -- 45
2018-07-11 06:00:00 20.7 4 Sur 8 Sudeste 0 -- -- 41
2018-07-11 05:00:00 20.9 5 Sur 13 Oeste 0 -- -- 36
2018-07-11 04:00:00 22.4 8 Oeste 12 Oeste 0 -- -- 32
2018-07-11 03:00:00 22.7 4 Noroeste 18 Norte 0 -- -- 33
2018-07-11 02:00:00 25.2 8 Sudoeste 14 Sudoeste 0 -- -- 28
2018-07-11 01:00:00 24.6 3 Sur 10 Oeste 0 -- -- 35
2018-07-11 00:00:00 27 6 Oeste 17 Oeste 0 -- -- 32
2018-07-10 23:00:00 28 8 Sudoeste 16 Sudoeste 0 -- -- 28
2018-07-10 22:00:00 29.7 10 Sudoeste 25 Sudoeste 0 -- -- 25
2018-07-10 21:00:00 32.3 14 Sudoeste 25 Sudoeste 0 -- -- 21
2018-07-10 20:00:00 33.3 13 Oeste 33 Oeste 0 -- -- 21
2018-07-10 19:00:00 34.5 14 Oeste 26 Oeste 0 -- -- 22
2018-07-10 18:00:00 33.6 10 Oeste 50 Noroeste 0 -- -- 22
2018-07-10 17:00:00 34.1 8 Norte 32 Noroeste 0 -- -- 23
2018-07-10 16:00:00 34.3 6 Norte 23 Noroeste 0 -- -- 23
2018-07-10 15:00:00 32.7 14 Oeste 27 Oeste 0 -- -- 25
2018-07-10 14:00:00 31.8 10 Noroeste 23 Noroeste 0 -- -- 26
2018-07-10 13:00:00 31 8 Norte 18 Norte 0 -- -- 34
2018-07-10 12:00:00 28.6 6 Noroeste 15 Norte 0 -- -- 40
2018-07-10 11:00:00 26.8 8 Noroeste 15 Noroeste 0 -- -- 44
2018-07-10 10:00:00 24.8 8 Noroeste 13 Norte 0 -- -- 48
2018-07-10 09:00:00 22.3 8 Noroeste 12 Noroeste 0 -- -- 54
2018-07-10 08:00:00 21.2 2 Sur 9 Sur 0 -- -- 54
2018-07-10 07:00:00 19 0 Calma 5 Sur 0 -- -- 58
2018-07-10 06:00:00 20.4 2 Oeste 5 Sudoeste 0 -- -- 55
2018-07-10 05:00:00 20.6 0 Calma 6 Noroeste 0 -- -- 52
2018-07-10 04:00:00 21.9 4 Sudoeste 9 Sudoeste 0 -- -- 38
2018-07-10 03:00:00 22.5 0 Calma 5 Sudoeste 0 -- -- 35
2018-07-10 02:00:00 24.5 0 Calma 13 Oeste 0 -- -- 30
2018-07-10 01:00:00 25.4 10 Oeste 13 Oeste 0 -- -- 28
2018-07-10 00:00:00 26.5 7 Sudoeste 13 Sudoeste 0 -- -- 29
2018-07-09 23:00:00 28 8 Sudoeste 14 Oeste 0 -- -- 32
2018-07-09 22:00:00 30.3 12 Oeste 22 Oeste 0 -- -- 29
2018-07-09 21:00:00 32.4 12 Oeste 24 Sudoeste 0 -- -- 27
2018-07-09 20:00:00 34.2 10 Oeste 27 Sudoeste 0 -- -- 21
2018-07-09 19:00:00 34.3 13 Oeste 28 Oeste 0 -- -- 20
2018-07-09 18:00:00 35 9 Oeste 30 Oeste 0 -- -- 22
2018-07-09 17:00:00 34.2 13 Oeste 26 Sudoeste 0 -- -- 23
2018-07-09 16:00:00 34.5 13 Sudoeste 31 Sudoeste 0 -- -- 21
2018-07-09 15:00:00 34 9 Noroeste 25 Oeste 0 -- -- 24
2018-07-09 14:00:00 32.4 8 Norte 19 Nordeste 0 -- -- 31
2018-07-09 13:00:00 31.8 6 Este 18 Nordeste 0 -- -- 33
2018-07-09 12:00:00 31.1 5 Nordeste 14 Norte 0 -- -- 35
2018-07-09 11:00:00 28.7 6 Noroeste 13 Noroeste 0 -- -- 40
2018-07-09 10:00:00 26.3 5 Sudoeste 10 Sudoeste 0 -- -- 44
2018-07-09 09:00:00 23.4 3 Sudoeste 9 Sudoeste 0 -- -- 52
2018-07-09 08:00:00 21.7 3 Sudoeste 8 Sudeste 0 -- -- 52
2018-07-09 07:00:00 19.6 4 Sudeste 8 Sur 0 -- -- 57
2018-07-09 06:00:00 20.5 4 Sur 9 Sur 0 -- -- 57
2018-07-09 05:00:00 20.6 4 Oeste 9 Oeste 0 -- -- 59
2018-07-09 04:00:00 22 4 Oeste 18 Norte 0 -- -- 47
2018-07-09 03:00:00 24.1 4 Sudeste 14 Oeste 0 -- -- 40
2018-07-09 02:00:00 24.4 5 Oeste 12 Oeste 0 -- -- 39
2018-07-09 01:00:00 25.3 6 Sudoeste 10 Oeste 0 -- -- 37
2018-07-09 00:00:00 26.7 6 Oeste 16 Sudoeste 0 -- -- 34
2018-07-08 23:00:00 28.8 12 Oeste 21 Oeste 0 -- -- 32
2018-07-08 22:00:00 30.4 8 Oeste 20 Oeste 0 -- -- 29
2018-07-08 21:00:00 32.5 14 Oeste 25 Oeste 0 -- -- 26
2018-07-08 20:00:00 33.7 9 Oeste 20 Oeste 0 -- -- 25
2018-07-08 19:00:00 34.3 11 Oeste 18 Sudoeste 0 -- -- 24
2018-07-08 18:00:00 34.4 5 Oeste 19 Oeste 0 -- -- 24
2018-07-08 17:00:00 34.9 9 Sudeste 19 Sur 0 -- -- 24
2018-07-08 16:00:00 33.7 6 Norte 17 Noroeste 0 -- -- 25
2018-07-08 15:00:00 32.9 8 Norte 19 Norte 0 -- -- 27
2018-07-08 14:00:00 31.2 8 Norte 17 Norte 0 -- -- 32
2018-07-08 13:00:00 30.3 6 Norte 14 Nordeste 0 -- -- 34
2018-07-08 12:00:00 28.6 5 Nordeste 10 Nordeste 0 -- -- 35
2018-07-08 11:00:00 26.8 5 Nordeste 12 Norte 0 -- -- 40
2018-07-08 10:00:00 24.9 2 Oeste 6 Sudoeste 0 -- -- 42
2018-07-08 09:00:00 22 3 Sudoeste 7 Oeste 0 -- -- 48
2018-07-08 08:00:00 19.8 5 Oeste 9 Noroeste 0 -- -- 52
2018-07-08 07:00:00 19.8 3 Este 10 Este 0 -- -- 50
2018-07-08 06:00:00 20.6 4 Sur 15 Sudeste 0 -- -- 48
2018-07-08 05:00:00 21.7 5 Sudeste 14 Este 0 -- -- 43
2018-07-08 04:00:00 21.6 2 Sudeste 6 Sur 0 -- -- 44
2018-07-08 03:00:00 23.1 4 Sur 9 Sur 0 -- -- 41
2018-07-08 02:00:00 23.8 2 Sur 9 Sudeste 0 -- -- 40
2018-07-08 01:00:00 24.5 6 Sudeste 9 Sudeste 0 -- -- 38
2018-07-08 00:00:00 25.8 5 Sur 10 Sudoeste 0 -- -- 35
2018-07-07 23:00:00 27.3 7 Oeste 12 Oeste 0 -- -- 31
2018-07-07 22:00:00 29.4 5 Oeste 11 Oeste 0 -- -- 26
2018-07-07 21:00:00 32.1 9 Oeste 24 Sudoeste 0 -- -- 22
2018-07-07 20:00:00 33.6 7 Sudoeste 21 Oeste 0 -- -- 21
2018-07-07 19:00:00 33.9 5 Oeste 22 Oeste 0 -- -- 21
2018-07-07 18:00:00 34 5 Sudeste 19 Sudoeste 0 -- -- 21
2018-07-07 17:00:00 32 6 Sudoeste 26 Sudoeste 0 -- -- 25
2018-07-07 16:00:00 33.1 7 Sur 23 Sur 0 -- -- 23
2018-07-07 15:00:00 32.8 9 Sudoeste 22 Sudeste 0 -- -- 24
2018-07-07 14:00:00 32 12 Sudeste 24 Sudeste 0 -- -- 26
2018-07-07 13:00:00 30.1 5 Nordeste 15 Sudeste 0 -- -- 29
2018-07-07 12:00:00 29.1 6 Este 12 Sudeste 0 -- -- 33
2018-07-07 11:00:00 26.1 4 Nordeste 9 Nordeste 0 -- -- 38
2018-07-07 10:00:00 22.7 6 Sur 12 Sudeste 0 -- -- 45
2018-07-07 09:00:00 22.1 4 Sur 10 Sur 0 -- -- 47
2018-07-07 08:00:00 20.5 2 Sur 10 Sur 0 -- -- 50
2018-07-07 07:00:00 19.7 3 Sudeste 7 Sur 0 -- -- 50
2018-07-07 06:00:00 20.6 0 Calma 6 Sur 0 -- -- 48
2018-07-07 05:00:00 22 4 Sur 9 Sur 0 -- -- 44
2018-07-07 04:00:00 22.8 5 Sudoeste 8 Sudoeste 0 -- -- 41
2018-07-07 03:00:00 24.5 0 Calma 14 Este 0 -- -- 37
2018-07-07 02:00:00 24.1 4 Sudoeste 9 Sudoeste 0 -- -- 39
2018-07-07 01:00:00 25.2 0 Calma 10 Sudoeste 0 -- -- 36
2018-07-07 00:00:00 25.7 6 Sudoeste 10 Oeste 0 -- -- 35
2018-07-06 23:00:00 26.8 4 Noroeste 12 Oeste 0 -- -- 33
2018-07-06 22:00:00 28 10 Oeste 20 Oeste 0 -- -- 31
2018-07-06 21:00:00 29.2 9 Noroeste 19 Oeste 0 -- -- 29
2018-07-06 20:00:00 30.4 8 Oeste 19 Oeste 0 -- -- 26
2018-07-06 19:00:00 30.9 14 Oeste 22 Sudoeste 0 -- -- 25
2018-07-06 18:00:00 32.2 14 Sudoeste 22 Sudoeste 0 -- -- 24
2018-07-06 17:00:00 31.2 6 Este 27 Sudoeste 0 -- -- 24
2018-07-06 16:00:00 31.7 10 Sudeste 23 Sudoeste 0 -- -- 24
2018-07-06 15:00:00 31.3 9 Sur 25 Sur 0 -- -- 25
2018-07-06 14:00:00 30 10 Sur 23 Sur 0 -- -- 28
2018-07-06 13:00:00 29 9 Sudoeste 26 Sudoeste 0 -- -- 29
2018-07-06 12:00:00 28.6 6 Sudeste 14 Sudeste 0 -- -- 28
2018-07-06 11:00:00 27.2 4 Nordeste 9 Sudeste 0 -- -- 35
2018-07-06 10:00:00 25.1 2 Sudeste 8 Sudeste 0 -- -- 39
2018-07-06 09:00:00 21.6 3 Sudeste 6 Sudeste 0 -- -- 46
2018-07-06 08:00:00 19.7 0 Calma 7 Este 0 -- -- 51
2018-07-06 07:00:00 17.3 2 Sur 5 Sur 0 -- -- 55
2018-07-06 06:00:00 18.4 2 Sur 5 Sur 0 -- -- 51
2018-07-06 05:00:00 18.4 2 Sudeste 9 Sur 0 -- -- 50
2018-07-06 04:00:00 19 4 Sur 8 Sur 0 -- -- 48
2018-07-06 03:00:00 19.6 4 Sur 8 Sur 0 -- -- 44
2018-07-06 02:00:00 20.2 6 Sudeste 8 Sudeste 0 -- -- 41
2018-07-06 01:00:00 20.7 4 Sur 10 Sur 0 -- -- 39
2018-07-06 00:00:00 21.8 5 Sur 8 Sur 0 -- -- 37
2018-07-05 23:00:00 23.3 4 Oeste 8 Noroeste 0 -- -- 33
2018-07-05 22:00:00 25 4 Noroeste 15 Norte 0 -- -- 30
2018-07-05 21:00:00 27.2 9 Oeste 21 Oeste 0 -- -- 28
2018-07-05 20:00:00 28.1 12 Noroeste 22 Oeste 0 -- -- 27
2018-07-05 19:00:00 28.5 12 Oeste 25 Noroeste 0 -- -- 26
2018-07-05 18:00:00 29 10 Oeste 26 Oeste 0 -- -- 26
2018-07-05 17:00:00 28.6 12 Noroeste 27 Oeste 0 -- -- 27
2018-07-05 16:00:00 27.4 15 Oeste 28 Noroeste 0 -- -- 28
2018-07-05 15:00:00 27.2 9 Oeste 26 Oeste 0 -- -- 27
2018-07-05 14:00:00 25.6 9 Sudoeste 24 Oeste 0 -- -- 29
2018-07-05 13:00:00 25.1 5 Sudeste 22 Sudoeste 0 -- -- 32
2018-07-05 12:00:00 24.8 5 Sudeste 15 Oeste 0 -- -- 38
2018-07-05 11:00:00 22.3 5 Sudoeste 12 Oeste 0 -- -- 45
2018-07-05 10:00:00 21.2 6 Oeste 16 Oeste 0 -- -- 48
2018-07-05 09:00:00 19.3 7 Noroeste 12 Noroeste 0 -- -- 54
2018-07-05 08:00:00 16.9 5 Sudeste 9 Sudeste 0 -- -- 58
2018-07-05 07:00:00 15.1 2 Sur 8 Sudoeste 0 -- -- 64
2018-07-05 06:00:00 15.4 0 Calma 6 Sur 0 -- -- 62
2018-07-05 05:00:00 16.3 5 Sudoeste 8 Sudoeste 0 -- -- 61
2018-07-05 04:00:00 16.3 4 Oeste 9 Oeste 0 -- -- 59
2018-07-05 03:00:00 17.4 5 Oeste 11 Oeste 0 -- -- 55
2018-07-05 02:00:00 18 5 Oeste 12 Sudoeste 0 -- -- 51
2018-07-05 01:00:00 18.7 4 Sudoeste 9 Oeste 0 -- -- 47
2018-07-05 00:00:00 20.2 4 Oeste 15 Oeste 0 -- -- 42
2018-07-04 23:00:00 21.4 8 Oeste 21 Oeste 0 -- -- 39
2018-07-04 22:00:00 22.9 15 Oeste 34 Oeste 0 -- -- 36
2018-07-04 21:00:00 24.8 20 Oeste 34 Oeste 0 -- -- 33
2018-07-04 20:00:00 26.1 18 Sudoeste 33 Oeste 0 -- -- 32
2018-07-04 19:00:00 26.4 16 Sudoeste 36 Sudoeste 0 -- -- 31
2018-07-04 18:00:00 26.4 18 Oeste 36 Sudoeste 0 -- -- 24
2018-07-04 17:00:00 26.6 17 Sudoeste 37 Sudoeste 0 -- -- 27
2018-07-04 16:00:00 26 19 Sudoeste 41 Sudoeste 0 -- -- 29
2018-07-04 15:00:00 25.1 20 Sudoeste 41 Sudoeste 0 -- -- 34
2018-07-04 14:00:00 25 19 Sudoeste 44 Sudoeste 0 -- -- 36
2018-07-04 13:00:00 25.5 20 Sudoeste 37 Oeste 0 -- -- 34
2018-07-04 12:00:00 24.7 19 Oeste 33 Sudoeste 0 -- -- 35
2018-07-04 11:00:00 24.7 15 Sudoeste 28 Sudoeste 0 -- -- 33
2018-07-04 10:00:00 24 3 Este 10 Oeste 0 -- -- 45
2018-07-04 09:00:00 20.5 6 Oeste 14 Sudoeste 0 -- -- 53
2018-07-04 08:00:00 20.3 3 Sur 6 Sur 0 -- -- 52
2018-07-04 07:00:00 17.7 3 Sur 9 Sur 0 -- -- 58
2018-07-04 06:00:00 18.2 5 Sur 12 Oeste 0 -- -- 55
2018-07-04 05:00:00 19.1 4 Sur 8 Sur 0 -- -- 52
2018-07-04 04:00:00 19.2 2 Sur 8 Sur 0 -- -- 51
2018-07-04 03:00:00 20.4 5 Sur 9 Sur 0 -- -- 48
2018-07-04 02:00:00 21.4 4 Sur 7 Sur 0 -- -- 45
2018-07-04 01:00:00 22.3 2 Sur 6 Sur 0 -- -- 43
2018-07-04 00:00:00 23.5 4 Sur 10 Noroeste 0 -- -- 38
2018-07-03 23:00:00 25.3 5 Oeste 13 Oeste 0 -- -- 33
2018-07-03 22:00:00 27.5 5 Oeste 12 Sudoeste 0 -- -- 27
2018-07-03 21:00:00 29.3 9 Oeste 19 Sudoeste 0 -- -- 25
2018-07-03 20:00:00 30.7 12 Oeste 23 Oeste 0 -- -- 22
2018-07-03 19:00:00 30.9 12 Sudoeste 27 Sudoeste 0 -- -- 22
2018-07-03 18:00:00 31.1 11 Oeste 27 Sudoeste 0 -- -- 21
2018-07-03 17:00:00 30.6 8 Oeste 32 Sudeste 0 -- -- 26
2018-07-03 16:00:00 30.5 8 Sudeste 22 Sur 0 -- -- 29
2018-07-03 15:00:00 29 9 Sur 25 Sur 0 -- -- 30
2018-07-03 14:00:00 27.4 10 Sur 20 Este 0 -- -- 33
2018-07-03 13:00:00 26.1 6 Oeste 17 Sudoeste 0 -- -- 39
2018-07-03 12:00:00 25.3 4 Sur 14 Sudoeste 0 -- -- 42
2018-07-03 11:00:00 23.7 5 Oeste 13 Noroeste 0 -- -- 47
2018-07-03 10:00:00 22.6 3 Noroeste 11 Noroeste 0 -- -- 53
2018-07-03 09:00:00 19.9 4 Sudoeste 8 Sudoeste 0 -- -- 60
2018-07-03 08:00:00 18 3 Sur 5 Sur 0 -- -- 67
2018-07-03 07:00:00 15.6 3 Sur 8 Sur 0 -- -- 73
2018-07-03 06:00:00 16 4 Sur 8 Sur 0 -- -- 71
2018-07-03 05:00:00 16.3 3 Sudeste 8 Sur 0 -- -- 69
2018-07-03 04:00:00 17.2 3 Sur 6 Sudoeste 0 -- -- 67
2018-07-03 03:00:00 17.2 4 Sudoeste 9 Sudoeste 0 -- -- 66
2018-07-03 02:00:00 17.8 3 Sudoeste 7 Sudoeste 0 -- -- 63
2018-07-03 01:00:00 18.8 2 Sudoeste 12 Oeste 0 -- -- 58
2018-07-03 00:00:00 20.1 8 Oeste 16 Oeste 0 -- -- 54
2018-07-02 23:00:00 21 9 Oeste 22 Oeste 0 -- -- 52
2018-07-02 22:00:00 22.5 15 Oeste 27 Oeste 0 -- -- 47
2018-07-02 21:00:00 25.6 12 Oeste 22 Sudoeste 0 -- -- 37
2018-07-02 20:00:00 26.8 10 Sudoeste 24 Sudoeste 0 -- -- 35
2018-07-02 19:00:00 26.4 13 Sudoeste 24 Sudoeste 0 -- -- 36
2018-07-02 18:00:00 27.3 14 Oeste 26 Sudoeste 0 -- -- 34
2018-07-02 17:00:00 26.6 12 Sudoeste 27 Sudoeste 0 -- -- 35
2018-07-02 16:00:00 27.2 13 Sudoeste 27 Oeste 0 -- -- 33
2018-07-02 15:00:00 26.1 12 Oeste 24 Sudoeste 0 -- -- 36
2018-07-02 14:00:00 25.9 10 Sudoeste 27 Sur 0 -- -- 36
2018-07-02 13:00:00 24.3 11 Oeste 23 Oeste 0 -- -- 41
2018-07-02 12:00:00 22.8 8 Sudoeste 18 Oeste 0 -- -- 48
2018-07-02 11:00:00 21.5 8 Sudoeste 16 Oeste 0 -- -- 54
2018-07-02 10:00:00 20 6 Oeste 16 Oeste 0 -- -- 59
2018-07-02 09:00:00 18.4 7 Oeste 13 Oeste 0 -- -- 65
2018-07-02 08:00:00 16.9 4 Sudoeste 8 Oeste 0 -- -- 65
2018-07-02 07:00:00 13.9 0 Calma 7 Sudeste 0 -- -- 68
2018-07-02 06:00:00 16.1 3 Sudeste 10 Sudoeste 0 -- -- 62
2018-07-02 05:00:00 16.5 5 Sudoeste 10 Sudoeste 0 -- -- 60
2018-07-02 04:00:00 16.7 4 Sudoeste 12 Noroeste 0 -- -- 59
2018-07-02 03:00:00 17.6 6 Sur 11 Sur 0 -- -- 56
2018-07-02 02:00:00 18.2 6 Sur 10 Sur 0 -- -- 54
2018-07-02 01:00:00 19.1 3 Sur 11 Sudoeste 0 -- -- 52
2018-07-02 00:00:00 20.2 4 Oeste 13 Oeste 0 -- -- 50
2018-07-01 23:00:00 21.4 9 Oeste 19 Oeste 0 -- -- 47
2018-07-01 22:00:00 22.8 9 Oeste 26 Oeste 0 -- -- 44
2018-07-01 21:00:00 25 14 Oeste 26 Oeste 0 -- -- 39
2018-07-01 20:00:00 26 17 Sudoeste 37 Sudoeste 0 -- -- 36
2018-07-01 19:00:00 26.2 13 Sudoeste 27 Sudoeste 0 -- -- 33
2018-07-01 18:00:00 27.1 12 Sudoeste 27 Sudoeste 0 -- -- 31
2018-07-01 17:00:00 27.4 17 Sudoeste 32 Sudoeste 0 -- -- 31
2018-07-01 16:00:00 26.9 12 Oeste 28 Oeste 0 -- -- 33
2018-07-01 15:00:00 25.7 14 Sudoeste 29 Oeste 0 -- -- 35
2018-07-01 14:00:00 24.6 18 Sudoeste 32 Sudoeste 0 -- -- 38
2018-07-01 13:00:00 25 10 Sudoeste 25 Sudoeste 0 -- -- 38
2018-07-01 12:00:00 22.4 11 Oeste 23 Sudoeste 0 -- -- 46
2018-07-01 11:00:00 22.4 9 Sudoeste 20 Oeste 0 -- -- 47
2018-07-01 10:00:00 20.8 10 Sudoeste 20 Oeste 0 -- -- 56
2018-07-01 09:00:00 19.7 6 Sudoeste 13 Sur 0 -- -- 66
2018-07-01 08:00:00 18 6 Sur 14 Sudoeste 0 -- -- 75
2018-07-01 07:00:00 18.4 5 Sudoeste 14 Oeste 0 -- -- 74
2018-07-01 06:00:00 18.3 7 Oeste 13 Oeste 0 -- -- 74
2018-07-01 05:00:00 18.5 2 Sudoeste 8 Sudoeste 0 -- -- 72
2018-07-01 04:00:00 19.7 4 Sudoeste 10 Oeste 0 -- -- 68
2018-07-01 03:00:00 20.1 7 Sudoeste 13 Oeste 0 -- -- 66
2018-07-01 02:00:00 20.8 8 Oeste 15 Oeste 0 -- -- 61
2018-07-01 01:00:00 20.8 6 Sudoeste 18 Sudoeste 0 -- -- 60
2018-07-01 00:00:00 21.4 11 Oeste 24 Oeste 0 -- -- 57
2018-06-30 23:00:00 22.5 11 Oeste 23 Sudoeste 0 -- -- 52
2018-06-30 22:00:00 24.6 12 Sudoeste 26 Sudoeste 0 -- -- 41
2018-06-30 21:00:00 26 16 Sudoeste 27 Sudoeste 0 -- -- 37
2018-06-30 20:00:00 26.7 14 Sudoeste 36 Sudoeste 0 -- -- 36
2018-06-30 19:00:00 28.6 16 Sudoeste 32 Sudoeste 0 -- -- 33
2018-06-30 18:00:00 29.1 14 Sudoeste 27 Sudoeste 0 -- -- 34
2018-06-30 17:00:00 28.4 10 Sudoeste 28 Sudoeste 0 -- -- 37
2018-06-30 16:00:00 27.8 9 Sur 32 Sur 0 -- -- 38
2018-06-30 15:00:00 28.9 13 Sudeste 34 Sudeste 0 -- -- 37
2018-06-30 14:00:00 27.5 7 Sur 18 Sur 0 -- -- 42
2018-06-30 13:00:00 24 6 Oeste 18 Sur 0 -- -- 49
2018-06-30 12:00:00 25.9 6 Sur 16 Sur 0 -- -- 42
2018-06-30 11:00:00 24.3 5 Sudeste 13 Sur 0 -- -- 44
2018-06-30 10:00:00 23 4 Sur 15 Sur 0 -- -- 46
2018-06-30 09:00:00 22.2 7 Sudeste 19 Este 0 -- -- 50
2018-06-30 08:00:00 19.6 8 Este 16 Sudeste 0 -- -- 67
2018-06-30 07:00:00 20 7 Sudeste 17 Sudeste 0 -- -- 65
2018-06-30 06:00:00 20.2 8 Sudeste 27 Sudeste 0 -- -- 66
2018-06-30 05:00:00 20.2 13 Sudeste 28 Sudeste 0 -- -- 69
2018-06-30 04:00:00 20.9 14 Sudeste 31 Este 0 -- -- 68
2018-06-30 03:00:00 21.9 15 Sudeste 30 Sudeste 0 -- -- 62
2018-06-30 02:00:00 23.2 10 Sudeste 27 Este 0 -- -- 57
2018-06-30 01:00:00 25.3 9 Este 17 Este 0 -- -- 41
2018-06-30 00:00:00 25.1 5 Sur 10 Sur 0 -- -- 39
2018-06-29 23:00:00 26.3 4 Sur 15 Sur 0 -- -- 35
2018-06-29 22:00:00 28.4 9 Sur 15 Sudoeste 0 -- -- 30
2018-06-29 21:00:00 30.6 10 Sudoeste 20 Sudoeste 0 -- -- 28
2018-06-29 20:00:00 31.5 14 Sudoeste 24 Sur 0 -- -- 25
2018-06-29 19:00:00 32.3 11 Sur 27 Sudeste 0 -- -- 25
2018-06-29 18:00:00 31.8 10 Sudoeste 29 Sudeste 0 -- -- 26
2018-06-29 17:00:00 32.4 12 Sudeste 32 Sudeste 0 -- -- 26
2018-06-29 16:00:00 30.8 6 Sudeste 22 Sudeste 0 -- -- 30
2018-06-29 15:00:00 31 10 Sudeste 29 Este 0 -- -- 30
2018-06-29 14:00:00 30 9 Sudeste 27 Este 0 -- -- 32
2018-06-29 13:00:00 29.4 9 Sudeste 20 Sudeste 0 -- -- 37
2018-06-29 12:00:00 27 8 Sudeste 18 Este 0 -- -- 46
2018-06-29 11:00:00 25.4 9 Este 24 Sudeste 0 -- -- 52
2018-06-29 10:00:00 23.2 14 Sudeste 27 Sudeste 0 -- -- 61
2018-06-29 09:00:00 21.7 9 Sudeste 21 Este 0 -- -- 63
2018-06-29 08:00:00 20.8 7 Este 16 Este 0 -- -- 66
2018-06-29 07:00:00 19.3 2 Este 11 Sudeste 0 -- -- 69
2018-06-29 06:00:00 19.2 2 Este 7 Sur 0 -- -- 69
2018-06-29 05:00:00 19.6 4 Sur 6 Sur 0 -- -- 67
2018-06-29 04:00:00 20.6 3 Sur 6 Sur 0 -- -- 62
2018-06-29 03:00:00 20.9 3 Sur 5 Este 0 -- -- 55
2018-06-29 02:00:00 22.4 3 Sudeste 8 Este 0 -- -- 47
2018-06-29 01:00:00 23.7 4 Este 9 Este 0 -- -- 38
2018-06-29 00:00:00 24.5 3 Sudeste 15 Oeste 0 -- -- 38
2018-06-28 23:00:00 26 7 Oeste 14 Sudoeste 0 -- -- 35
2018-06-28 22:00:00 27.3 9 Sudoeste 22 Sudoeste 0 -- -- 32
2018-06-28 21:00:00 28.8 11 Sudoeste 27 Sudoeste 0 -- -- 28
2018-06-28 20:00:00 30.3 15 Oeste 29 Sudoeste 0 -- -- 26
2018-06-28 19:00:00 30.9 10 Sudoeste 22 Sudoeste 0 -- -- 24
2018-06-28 18:00:00 29.7 12 Sudoeste 23 Sudoeste 0 -- -- 28
2018-06-28 17:00:00 30 6 Norte 24 Sudoeste 0 -- -- 28
2018-06-28 16:00:00 29.5 10 Sudoeste 25 Oeste 0 -- -- 29
2018-06-28 15:00:00 29.7 11 Noroeste 24 Noroeste 0 -- -- 29
2018-06-28 14:00:00 27.5 9 Oeste 21 Oeste 0 -- -- 32
2018-06-28 13:00:00 26.3 11 Noroeste 22 Noroeste 0 -- -- 38
2018-06-28 12:00:00 26 8 Noroeste 15 Noroeste 0 -- -- 40
2018-06-28 11:00:00 24.3 6 Noroeste 12 Oeste 0 -- -- 41
2018-06-28 10:00:00 23.7 5 Noroeste 11 Noroeste 0 -- -- 40
2018-06-28 09:00:00 21.5 4 Sudoeste 7 Oeste 0 -- -- 41
2018-06-28 08:00:00 19.9 5 Sudeste 9 Sudeste 0 -- -- 42
2018-06-28 07:00:00 18.5 5 Sur 9 Sur 0 -- -- 43
2018-06-28 06:00:00 19.1 4 Sur 8 Sur 0 -- -- 40
2018-06-28 05:00:00 19.6 4 Sur 8 Sur 0 -- -- 38
2018-06-28 04:00:00 20.9 3 Sur 7 Sur 0 -- -- 35
2018-06-28 03:00:00 20.8 4 Sur 8 Sur 0 -- -- 35
2018-06-28 02:00:00 21.4 3 Sur 8 Sur 0 -- -- 31
2018-06-28 01:00:00 22.7 4 Sur 8 Sudoeste 0 -- -- 28
2018-06-28 00:00:00 23.9 4 Sudoeste 11 Oeste 0 -- -- 26
2018-06-27 23:00:00 24.5 4 Nordeste 14 Oeste 0 -- -- 26
2018-06-27 22:00:00 26.5 11 Oeste 24 Oeste 0 -- -- 24
2018-06-27 21:00:00 28.4 13 Oeste 28 Oeste 0 -- -- 27
2018-06-27 20:00:00 30.1 16 Oeste 32 Sudoeste 0 -- -- 28
2018-06-27 19:00:00 31.5 15 Sudoeste 27 Sudoeste 0 -- -- 28
2018-06-27 18:00:00 31.8 12 Sudoeste 45 Sudoeste 0 -- -- 29
2018-06-27 17:00:00 32.1 9 Sudoeste 26 Sur 0 -- -- 31
2018-06-27 16:00:00 31.8 10 Sur 27 Sudoeste 0 -- -- 32
2018-06-27 15:00:00 31.7 13 Sudoeste 26 Sudoeste 0 -- -- 34
2018-06-27 14:00:00 31.2 5 Sudoeste 21 Oeste 0 -- -- 36
2018-06-27 13:00:00 29.2 6 Noroeste 18 Oeste 0 -- -- 40
2018-06-27 12:00:00 27.8 8 Norte 18 Norte 0 -- -- 41
2018-06-27 11:00:00 27.2 9 Norte 17 Norte 0 -- -- 41
2018-06-27 10:00:00 26.8 4 Norte 8 Norte 0 -- -- 41
2018-06-27 09:00:00 24.6 3 Sur 9 Nordeste 0 -- -- 44
2018-06-27 08:00:00 21.5 3 Sur 9 Sur 0 -- -- 54
2018-06-27 07:00:00 21 5 Sur 9 Sur 0 -- -- 55
2018-06-27 06:00:00 21.7 3 Sur 12 Sudoeste 0 -- -- 51
2018-06-27 05:00:00 22.3 5 Sudoeste 14 Sudoeste 0 -- -- 51
2018-06-27 04:00:00 23 9 Oeste 20 Oeste 0 -- -- 49
2018-06-27 03:00:00 23.8 11 Oeste 19 Oeste 0 -- -- 49
2018-06-27 02:00:00 25.1 6 Oeste 16 Oeste 0 -- -- 46
2018-06-27 01:00:00 25.8 6 Noroeste 11 Sudoeste 0 -- -- 46
2018-06-27 00:00:00 27.1 3 Oeste 12 Oeste 0 -- -- 44
2018-06-26 23:00:00 28.2 8 Oeste 15 Oeste 0 -- -- 42
2018-06-26 22:00:00 29.7 10 Oeste 21 Oeste 0 -- -- 39
2018-06-26 21:00:00 32.2 10 Sudoeste 21 Sudoeste 0 -- -- 33
2018-06-26 20:00:00 33.2 14 Sudoeste 35 Sudoeste 0 -- -- 33
2018-06-26 19:00:00 33.8 10 Sudoeste 27 Sudoeste 0 -- -- 31
2018-06-26 18:00:00 34.9 9 Sur 23 Sur 0 -- -- 28
2018-06-26 17:00:00 33.5 14 Oeste 23 Oeste 0 -- -- 35
2018-06-26 16:00:00 33.5 6 Sur 19 Oeste 0 -- -- 35
2018-06-26 15:00:00 33.3 6 Sur 16 Sudeste 0 -- -- 37
2018-06-26 14:00:00 32.1 6 Sudoeste 16 Sur 0 -- -- 38
2018-06-26 13:00:00 30 5 Noroeste 19 Oeste 0 -- -- 42
2018-06-26 12:00:00 29.2 6 Oeste 14 Noroeste 0 -- -- 45
2018-06-26 11:00:00 27.4 6 Oeste 14 Oeste 0 -- -- 48
2018-06-26 10:00:00 25.4 8 Oeste 13 Oeste 0 -- -- 54
2018-06-26 09:00:00 24.1 3 Oeste 8 Sudoeste 0 -- -- 58
2018-06-26 08:00:00 23.1 3 Oeste 6 Oeste 0 -- -- 62
2018-06-26 07:00:00 21.7 0 Calma 6 Noroeste 0 -- -- 67
2018-06-26 06:00:00 22.7 2 Sur 12 Sudoeste 0 -- -- 64
2018-06-26 05:00:00 23.3 5 Sur 12 Sudoeste 0 -- -- 61
2018-06-26 04:00:00 24.2 5 Sudoeste 10 Sudoeste 0 -- -- 57
2018-06-26 03:00:00 24.7 0 Calma 7 Sudoeste 0 -- -- 56
2018-06-26 02:00:00 25.6 2 Oeste 8 Oeste 0 -- -- 53
2018-06-26 01:00:00 26.5 0 Calma 10 Oeste 0 -- -- 50
2018-06-26 00:00:00 28.2 5 Oeste 12 Oeste 0 -- -- 44
2018-06-25 23:00:00 29.2 7 Oeste 11 Oeste 0 -- -- 33
2018-06-25 22:00:00 30.4 4 Oeste 43 Este 0 -- -- 25
2018-06-25 21:00:00 31.1 18 Este 42 Nordeste 0 -- -- 28
2018-06-25 20:00:00 35.2 11 Oeste 20 Oeste 0 -- -- 31
2018-06-25 19:00:00 35.5 10 Oeste 23 Oeste 0 -- -- 31
2018-06-25 18:00:00 36 6 Oeste 21 Oeste 0 -- -- 30
2018-06-25 17:00:00 35.1 11 Oeste 20 Oeste 0 -- -- 32
2018-06-25 16:00:00 34.3 7 Oeste 26 Oeste 0 -- -- 33
2018-06-25 15:00:00 34.4 5 Sudoeste 19 Oeste 0 -- -- 34
2018-06-25 14:00:00 32.2 6 Noroeste 19 Sudoeste 0 -- -- 37
2018-06-25 13:00:00 30.5 10 Oeste 21 Oeste 0 -- -- 38
2018-06-25 12:00:00 29.1 12 Oeste 18 Oeste 0 -- -- 40
2018-06-25 11:00:00 27.4 9 Oeste 20 Oeste 0 -- -- 47
2018-06-25 10:00:00 25.8 6 Sudoeste 20 Sudeste 0 -- -- 51
2018-06-25 09:00:00 22.5 12 Sur 20 Sur 0 -- -- 63
2018-06-25 08:00:00 20.9 10 Sur 20 Sudeste 0 -- -- 70
2018-06-25 07:00:00 20.5 6 Sur 26 Sudeste 0 -- -- 70
2018-06-25 06:00:00 21.4 9 Sudeste 17 Sudeste 0 -- -- 67
2018-06-25 05:00:00 22.6 5 Este 28 Este 0 -- -- 64
2018-06-25 04:00:00 23.7 14 Sudeste 30 Sudeste 0 -- -- 62
2018-06-25 03:00:00 25.2 7 Sudeste 14 Sudeste 0 -- -- 56
2018-06-25 02:00:00 26.9 8 Este 26 Este 0 -- -- 45
2018-06-25 01:00:00 24.8 2 Nordeste 6 Norte 0 -- -- 34
2018-06-25 00:00:00 28.2 0 Calma 4 Sur 0 -- -- 26
2018-06-24 23:00:00 29.6 0 Calma 6 Nordeste 0 -- -- 28
2018-06-24 22:00:00 32.2 5 Nordeste 8 Nordeste 0 -- -- 23
2018-06-24 21:00:00 34.4 8 Nordeste 14 Nordeste 0 -- -- 21
2018-06-24 20:00:00 35.9 10 Noroeste 18 Oeste 0 -- -- 20
2018-06-24 19:00:00 37 5 Noroeste 15 Noroeste 0 -- -- 21
2018-06-24 18:00:00 37.6 4 Nordeste 16 Sudoeste 0 -- -- 22
2018-06-24 17:00:00 36.3 8 Noroeste 27 Norte 0 -- -- 22
2018-06-24 16:00:00 35.7 8 Noroeste 21 Noroeste 0 -- -- 26
2018-06-24 15:00:00 35.5 8 Noroeste 18 Oeste 0 -- -- 25
2018-06-24 14:00:00 33.5 6 Sudoeste 16 Oeste 0 -- -- 28
2018-06-24 13:00:00 32 7 Oeste 17 Oeste 0 -- -- 32
2018-06-24 12:00:00 29.7 5 Oeste 19 Sudoeste 0 -- -- 36
2018-06-24 11:00:00 27.3 5 Sur 15 Sur 0 -- -- 42
2018-06-24 10:00:00 25.6 5 Sur 13 Sur 0 -- -- 45
2018-06-24 09:00:00 22.5 5 Norte 9 Norte 0 -- -- 58
2018-06-24 08:00:00 20.7 2 Sudeste 11 Nordeste 0 -- -- 63
2018-06-24 07:00:00 20 6 Sudeste 12 Sur 0 -- -- 65
2018-06-24 06:00:00 21.1 6 Sur 12 Sur 0 -- -- 60
2018-06-24 05:00:00 22.3 3 Sur 23 Sudeste 0 -- -- 54
2018-06-24 04:00:00 23.4 8 Sudeste 22 Sudeste 0 -- -- 45
2018-06-24 03:00:00 24.3 6 Sur 15 Sudoeste 0 -- -- 44
2018-06-24 02:00:00 26.7 7 Sur 13 Sur 0 -- -- 37
2018-06-24 01:00:00 27.2 6 Sur 15 Sudeste 0 -- -- 36
2018-06-24 00:00:00 29 7 Sudeste 19 Sudeste 0 -- -- 31
2018-06-23 23:00:00 28.6 2 Nordeste 9 Norte 0 -- -- 29
2018-06-23 22:00:00 31.4 5 Nordeste 13 Nordeste 0 -- -- 25
2018-06-23 21:00:00 33.4 7 Nordeste 18 Norte 0 -- -- 25
2018-06-23 20:00:00 35.9 2 Nordeste 15 Este 0 -- -- 23
2018-06-23 19:00:00 35.8 4 Este 16 Noroeste 0 -- -- 24
2018-06-23 18:00:00 34.2 6 Norte 22 Norte 0 -- -- 25
2018-06-23 17:00:00 35 5 Noroeste 19 Norte 0 -- -- 25
2018-06-23 16:00:00 34.6 7 Sur 18 Sudeste 0 -- -- 24
2018-06-23 15:00:00 34.1 5 Sur 15 Nordeste 0 -- -- 26
2018-06-23 14:00:00 32.7 6 Norte 18 Oeste 0 -- -- 29
2018-06-23 13:00:00 31.7 9 Oeste 22 Oeste 0 -- -- 30
2018-06-23 12:00:00 30.7 7 Noroeste 14 Oeste 0 -- -- 34
2018-06-23 11:00:00 28 8 Oeste 14 Oeste 0 -- -- 37
2018-06-23 10:00:00 26.5 7 Oeste 14 Sur 0 -- -- 39
2018-06-23 09:00:00 23.6 9 Sur 24 Sudeste 0 -- -- 45
2018-06-23 08:00:00 21.7 13 Sudeste 23 Sudeste 0 -- -- 49
2018-06-23 07:00:00 21.1 13 Sudeste 24 Sudeste 0 -- -- 49
2018-06-23 06:00:00 22 15 Sudeste 27 Este 0 -- -- 46
2018-06-23 05:00:00 21.7 4 Sudeste 9 Sudeste 0 -- -- 44
2018-06-23 04:00:00 22.1 4 Nordeste 10 Norte 0 -- -- 42
2018-06-23 03:00:00 24.3 6 Sur 12 Sur 0 -- -- 36
2018-06-23 02:00:00 25.1 6 Sur 18 Sudeste 0 -- -- 35
2018-06-23 01:00:00 27 8 Sudeste 21 Sudeste 0 -- -- 31
2018-06-23 00:00:00 28.5 6 Sudeste 16 Sudeste 0 -- -- 26
2018-06-22 23:00:00 29.3 7 Este 17 Este 0 -- -- 25
2018-06-22 22:00:00 30.1 7 Nordeste 15 Este 0 -- -- 24
2018-06-22 21:00:00 32.5 7 Este 17 Nordeste 0 -- -- 22
2018-06-22 20:00:00 33.6 10 Este 20 Nordeste 0 -- -- 22
2018-06-22 19:00:00 34.8 6 Sudeste 21 Sur 0 -- -- 21
2018-06-22 18:00:00 34 6 Este 23 Este 0 -- -- 21
2018-06-22 17:00:00 33.5 11 Este 22 Este 0 -- -- 22
2018-06-22 16:00:00 33.4 10 Este 24 Sudeste 0 -- -- 21
2018-06-22 15:00:00 33.1 9 Sudeste 24 Este 0 -- -- 22
2018-06-22 14:00:00 32 9 Sudeste 30 Este 0 -- -- 24
2018-06-22 13:00:00 31.3 9 Sudeste 19 Sudeste 0 -- -- 27
2018-06-22 12:00:00 29.9 7 Sur 16 Sur 0 -- -- 31
2018-06-22 11:00:00 27.8 7 Sur 14 Sudeste 0 -- -- 39
2018-06-22 10:00:00 24.7 7 Sur 20 Sur 0 -- -- 44
2018-06-22 09:00:00 22.1 12 Sur 21 Sudeste 0 -- -- 47
2018-06-22 08:00:00 20.1 8 Sur 20 Sur 0 -- -- 52
2018-06-22 07:00:00 20.4 9 Sudeste 26 Sudeste 0 -- -- 49
2018-06-22 06:00:00 21.3 12 Sudeste 28 Este 0 -- -- 46
2018-06-22 05:00:00 22 13 Sudeste 26 Sudeste 0 -- -- 43
2018-06-22 04:00:00 23.1 12 Sudeste 21 Sudeste 0 -- -- 39
2018-06-22 03:00:00 23.6 9 Sudeste 22 Sudeste 0 -- -- 37
2018-06-22 02:00:00 24.6 12 Sudeste 24 Sudeste 0 -- -- 33
2018-06-22 01:00:00 25.3 7 Sudeste 17 Sudeste 0 -- -- 32
2018-06-22 00:00:00 26.7 8 Sudeste 18 Este 0 -- -- 29
2018-06-21 23:00:00 27.6 8 Sudeste 17 Sudeste 0 -- -- 27
2018-06-21 22:00:00 28.6 9 Este 21 Este 0 -- -- 26
2018-06-21 21:00:00 31 13 Este 26 Este 0 -- -- 22
2018-06-21 20:00:00 32.1 14 Este 28 Este 0 -- -- 20
2018-06-21 19:00:00 32.8 14 Este 28 Nordeste 0 -- -- 19
2018-06-21 18:00:00 32.9 14 Sudeste 37 Este 0 -- -- 19
2018-06-21 17:00:00 32 11 Nordeste 28 Este 0 -- -- 20
2018-06-21 16:00:00 32 13 Este 26 Este 0 -- -- 21
2018-06-21 15:00:00 31.6 12 Este 27 Este 0 -- -- 24
2018-06-21 14:00:00 31 10 Este 26 Sudeste 0 -- -- 27
2018-06-21 13:00:00 29.4 10 Este 22 Este 0 -- -- 29
2018-06-21 12:00:00 27.7 13 Este 28 Este 0 -- -- 37
2018-06-21 11:00:00 26.1 10 Este 22 Sudeste 0 -- -- 42
2018-06-21 10:00:00 24 12 Este 21 Este 0 -- -- 45
2018-06-21 09:00:00 21.9 6 Sur 15 Sudeste 0 -- -- 51
2018-06-21 08:00:00 21 4 Nordeste 14 Oeste 0 -- -- 52
2018-06-21 07:00:00 19.3 10 Sudoeste 17 Sudoeste 0 -- -- 57
2018-06-21 06:00:00 20 6 Sudoeste 12 Sudoeste 0 -- -- 55
2018-06-21 05:00:00 21.1 5 Sur 16 Sudeste 0 -- -- 51
2018-06-21 04:00:00 21.7 7 Sudoeste 21 Sudeste 0 -- -- 47
2018-06-21 03:00:00 22.9 9 Sudeste 22 Sudeste 0 -- -- 44
2018-06-21 02:00:00 24.5 8 Sudeste 23 Sudeste 0 -- -- 38
2018-06-21 01:00:00 25.9 13 Sudeste 22 Sudeste 0 -- -- 35
2018-06-21 00:00:00 26.4 10 Sudeste 24 Sudeste 0 -- -- 35
2018-06-20 23:00:00 27.4 9 Sudeste 19 Sudeste 0 -- -- 34
2018-06-20 22:00:00 28.9 7 Sudeste 16 Este 0 -- -- 32
2018-06-20 21:00:00 31.7 8 Este 20 Este 0 -- -- 28
2018-06-20 20:00:00 33 6 Este 18 Sudeste 0 -- -- 26
2018-06-20 19:00:00 32.9 6 Sudeste 24 Sudeste 0 -- -- 26
2018-06-20 18:00:00 33.5 5 Este 22 Este 0 -- -- 24
2018-06-20 17:00:00 32.2 8 Nordeste 26 Este 0 -- -- 27
2018-06-20 16:00:00 32.2 6 Nordeste 24 Este 0 -- -- 29
2018-06-20 15:00:00 31.6 8 Este 21 Este 0 -- -- 31
2018-06-20 14:00:00 30.2 7 Este 19 Este 0 -- -- 35
2018-06-20 13:00:00 29.1 7 Este 18 Este 0 -- -- 37
2018-06-20 12:00:00 27.1 7 Nordeste 16 Norte 0 -- -- 42
2018-06-20 11:00:00 25.3 8 Nordeste 14 Sur 0 -- -- 46
2018-06-20 10:00:00 24.3 5 Sudeste 17 Este 0 -- -- 49
2018-06-20 09:00:00 20.9 11 Este 18 Este 0 -- -- 57
2018-06-20 08:00:00 20.6 3 Noroeste 15 Sur 0 -- -- 58
2018-06-20 07:00:00 18.9 6 Sudeste 16 Este 0 -- -- 63
2018-06-20 06:00:00 20.1 9 Este 24 Este 0 -- -- 59
2018-06-20 05:00:00 20.4 9 Sudeste 26 Sudeste 0 -- -- 57
2018-06-20 04:00:00 21.3 15 Sudeste 25 Sudeste 0 -- -- 55
2018-06-20 03:00:00 22.6 8 Sudeste 27 Sudeste 0 -- -- 50
2018-06-20 02:00:00 24.4 14 Sudeste 27 Sudeste 0 -- -- 44
2018-06-20 01:00:00 24.8 15 Sudeste 33 Sudeste 0 -- -- 44
2018-06-20 00:00:00 25.7 16 Sudeste 30 Este 0 -- -- 42
2018-06-19 23:00:00 26.9 13 Sudeste 24 Sudeste 0 -- -- 37
2018-06-19 22:00:00 28.8 7 Sudeste 18 Este 0 -- -- 33
2018-06-19 21:00:00 31.1 7 Nordeste 13 Nordeste 0 -- -- 29
2018-06-19 20:00:00 32.5 4 Este 15 Este 0 -- -- 28
2018-06-19 19:00:00 30.7 5 Nordeste 17 Nordeste 0 -- -- 30
2018-06-19 18:00:00 32.9 4 Oeste 19 Noroeste 0 -- -- 27
2018-06-19 17:00:00 31.3 9 Noroeste 19 Este 0 -- -- 30
2018-06-19 16:00:00 32.3 4 Este 16 Oeste 0 -- -- 28
2018-06-19 15:00:00 30.4 6 Noroeste 19 Noroeste 0 -- -- 31
2018-06-19 14:00:00 30 4 Noroeste 13 Nordeste 0 -- -- 34
2018-06-19 13:00:00 28.4 6 Nordeste 12 Noroeste 0 -- -- 38
2018-06-19 12:00:00 25.9 7 Norte 13 Norte 0 -- -- 44
2018-06-19 11:00:00 24.2 3 Noroeste 15 Noroeste 0 -- -- 47
2018-06-19 10:00:00 22.1 4 Oeste 12 Norte 0 -- -- 50
2018-06-19 09:00:00 20.1 5 Norte 9 Nordeste 0 -- -- 53
2018-06-19 08:00:00 19.2 4 Nordeste 18 Este 0 -- -- 55
2018-06-19 07:00:00 17.5 6 Nordeste 11 Nordeste 0 -- -- 62
2018-06-19 06:00:00 18 3 Noroeste 20 Nordeste 0 -- -- 58
2018-06-19 05:00:00 19.8 9 Este 19 Este 0 -- -- 55
2018-06-19 04:00:00 19.7 2 Nordeste 19 Este 0 -- -- 52
2018-06-19 03:00:00 20.5 8 Nordeste 13 Nordeste 0 -- -- 47
2018-06-19 02:00:00 19.6 4 Norte 16 Norte 0 -- -- 45
2018-06-19 01:00:00 22.2 8 Nordeste 21 Nordeste 0 -- -- 37
2018-06-19 00:00:00 25.4 12 Nordeste 26 Nordeste 0 -- -- 29
2018-06-18 23:00:00 26.1 13 Nordeste 22 Nordeste 0 -- -- 28
2018-06-18 22:00:00 26.6 8 Nordeste 20 Nordeste 0 -- -- 27
2018-06-18 21:00:00 29.5 13 Nordeste 27 Norte 0 -- -- 24
2018-06-18 20:00:00 30.6 16 Norte 31 Norte 0 -- -- 23
2018-06-18 19:00:00 31.7 13 Norte 27 Nordeste 0 -- -- 22
2018-06-18 18:00:00 31.6 14 Norte 32 Nordeste 0 -- -- 21
2018-06-18 17:00:00 31.8 12 Norte 29 Norte 0 -- -- 21
2018-06-18 16:00:00 30.8 13 Norte 37 Norte 0 -- -- 27
2018-06-18 15:00:00 30.9 10 Norte 27 Norte 0 -- -- 27
2018-06-18 14:00:00 29.6 14 Norte 29 Nordeste 0 -- -- 26
2018-06-18 13:00:00 28.1 14 Norte 24 Norte 0 -- -- 29
2018-06-18 12:00:00 26.9 10 Nordeste 24 Norte 0 -- -- 34
2018-06-18 11:00:00 24.5 12 Nordeste 21 Norte 0 -- -- 40
2018-06-18 10:00:00 21.5 9 Nordeste 21 Nordeste 0 -- -- 45
2018-06-18 09:00:00 19.9 9 Nordeste 17 Nordeste 0 -- -- 47
2018-06-18 08:00:00 17.2 3 Norte 6 Sudoeste 0 -- -- 57
2018-06-18 07:00:00 15.2 2 Norte 7 Sudoeste 0 -- -- 59
2018-06-18 06:00:00 17 2 Oeste 8 Norte 0 -- -- 52
2018-06-18 05:00:00 17.1 3 Noroeste 7 Norte 0 -- -- 52
2018-06-18 04:00:00 18.2 4 Norte 8 Norte 0 -- -- 47
2018-06-18 03:00:00 17.6 4 Noroeste 7 Noroeste 0 -- -- 47
2018-06-18 02:00:00 19.6 3 Norte 7 Norte 0 -- -- 40
2018-06-18 01:00:00 20.6 5 Norte 12 Norte 0 -- -- 37
2018-06-18 00:00:00 22.8 6 Norte 13 Norte 0 -- -- 30
2018-06-17 23:00:00 24.2 7 Norte 21 Noroeste 0 -- -- 34
2018-06-17 22:00:00 26.2 10 Noroeste 19 Noroeste 0 -- -- 35
2018-06-17 21:00:00 30.4 7 Norte 17 Norte 0 -- -- 25
2018-06-17 20:00:00 31.6 9 Norte 22 Norte 0 -- -- 22
2018-06-17 19:00:00 31.9 7 Norte 24 Noroeste 0 -- -- 22
2018-06-17 18:00:00 31.7 12 Noroeste 24 Noroeste 0 -- -- 22
2018-06-17 17:00:00 31.2 12 Norte 24 Noroeste 0 -- -- 23
2018-06-17 16:00:00 31.2 11 Noroeste 25 Nordeste 0 -- -- 24
2018-06-17 15:00:00 30.1 9 Oeste 24 Nordeste 0 -- -- 29
2018-06-17 14:00:00 29.4 7 Nordeste 29 Nordeste 0 -- -- 35
2018-06-17 13:00:00 27.9 12 Nordeste 23 Nordeste 0 -- -- 42
2018-06-17 12:00:00 26.2 10 Norte 19 Norte 0 -- -- 46
2018-06-17 11:00:00 24.5 7 Nordeste 17 Nordeste 0 -- -- 51
2018-06-17 10:00:00 23 7 Norte 14 Nordeste 0 -- -- 55
2018-06-17 09:00:00 21.9 8 Nordeste 16 Nordeste 0 -- -- 57
2018-06-17 08:00:00 19.6 0 Calma 3 Sudoeste 0 -- -- 59
2018-06-17 07:00:00 15.8 0 Calma 6 Nordeste 0 -- -- 68
2018-06-17 06:00:00 16.6 0 Calma 7 Este 0 -- -- 60
2018-06-17 05:00:00 16.7 0 Calma 5 Este 0 -- -- 52
2018-06-17 04:00:00 17.4 3 Oeste 4 Sudoeste 0 -- -- 48
2018-06-17 03:00:00 18.5 2 Sudoeste 6 Sudoeste 0 -- -- 43
2018-06-17 02:00:00 19.2 2 Noroeste 9 Norte 0 -- -- 42
2018-06-17 01:00:00 20.6 6 Norte 11 Noroeste 0 -- -- 40
2018-06-17 00:00:00 22.7 6 Norte 16 Noroeste 0 -- -- 40